Finkenwerder, Germany

2:40 AM CET on December 20, 2014 (GMT +0100)
Othmarschen, Hamburg | Change Station
CLOSE
Current Station
Personal Weather Station
Location: Hamburg, HAMBURG
Elevation: 131 ft
Nearby Weather Stations

Elev 131 ft 53.56 °N, 9.87 °E | Updated 1 minute ago

Scattered Clouds
Scattered Clouds
42.2 °F
Feels Like 42 °F
N
0.0
Wind Variable Wind from WSW
Gusts 0.0 mph

Today
High -- | Low -- °F
--% Chance of Precip.
Yesterday
High -- | Low -- °F
Precip. -- in
8:34 AM 4:02 PM
Waning Crescent, 5% visible
Pressure 29.80 in
Visibility 6.2 miles
Clouds Scattered Clouds 2200 ft
Windchill 42 °F
Dew Point 39 °F
Humidity 88%
Rainfall 0.41 in
Snow Depth Not available.
UV 0.0 out of 12
Pollen Not available.
Air Quality Not available.
Flu Activity Not available.
METAR EDDH 200120Z 25018G29KT 220V280 9999 SCT022 06/03 Q1009 TEMPO SHRA BKN014CB

More Conditions Fewer Conditions

Pressure 29.80 in
Visibility 6.2 miles
Clouds Scattered Clouds 2200 ft
Windchill 42 °F
Dew Point 39 °F
Humidity 88%
Rainfall 0.41 in
Snow Depth Not available.
UV 0.0 out of 12
Pollen Not available.
Air Quality Not available.
Flu Activity Not available.
METAR EDDH 200120Z 25018G29KT 220V280 9999 SCT022 06/03 Q1009 TEMPO SHRA BKN014CB

More Conditions Fewer Conditions

10-Day Weather Forecast

Almanac

Astronomy

Dec. 20, 2014 Rise Set
Actual Time
Civil Twilight
Nautical Twilight
Astronomical Twilight
Moon
Length of Visible Light
Length of Day
Tomorrow will be .
, % of the Moon is Illuminated

Today's Extremes

Country Highs Country Lows

Community

WunderPhotos

Upload Photos

1,779,102 photos uploaded!

WunderBlogs® & News

Nearby

Air Quality

  Air Quality AQ Index Pollutant
Not available.

Snow Depth

Station Depth Elevation

Earthquake Activity

City Distance Mag. Time & Date
Minimum magnitude displayed is 2.5.

Coastal Water Temperatures

Place Temperature

Nearby Weather Stations